createdAt,value
2022-11-18T00:00:21.599Z,5.91
2022-11-18T00:02:53.187Z,5.89
2022-11-18T00:05:24.762Z,5.86
2022-11-18T00:07:56.355Z,5.86
2022-11-18T00:10:28.008Z,5.88
2022-11-18T00:13:18.110Z,5.87
2022-11-18T00:15:49.775Z,5.78
2022-11-18T00:18:21.448Z,5.78
2022-11-18T00:20:53.080Z,5.74
2022-11-18T00:23:24.670Z,5.68
2022-11-18T00:26:01.310Z,5.70
2022-11-18T00:28:33.921Z,5.74
2022-11-18T00:31:14.006Z,5.68
2022-11-18T00:33:46.809Z,5.69
2022-11-18T00:36:20.538Z,5.75
2022-11-18T00:38:52.274Z,5.72
2022-11-18T00:41:24.540Z,5.76
2022-11-18T00:43:56.254Z,5.75
2022-11-18T00:46:28.222Z,5.68
2022-11-18T00:49:02.831Z,5.66
2022-11-18T00:51:34.817Z,5.63
2022-11-18T00:54:06.748Z,5.58
2022-11-18T00:56:38.674Z,5.65
2022-11-18T00:59:10.346Z,5.67
2022-11-18T01:01:42.080Z,5.66
2022-11-18T01:04:13.902Z,5.55
2022-11-18T01:06:45.534Z,5.46
2022-11-18T01:09:17.367Z,5.49
2022-11-18T01:12:10.793Z,5.51
2022-11-18T01:14:42.510Z,5.57
2022-11-18T01:17:14.399Z,5.62
2022-11-18T01:19:46.131Z,5.64
2022-11-18T01:22:17.787Z,5.51
2022-11-18T01:24:49.360Z,5.45
2022-11-18T01:27:21.039Z,5.45
2022-11-18T01:29:56.643Z,5.42
2022-11-18T01:32:29.083Z,5.43
2022-11-18T01:35:00.875Z,5.43
2022-11-18T01:37:32.515Z,5.44
2022-11-18T01:40:08.782Z,5.45
2022-11-18T01:42:40.397Z,5.37
2022-11-18T01:45:11.962Z,5.45
2022-11-18T01:47:51.932Z,5.49
2022-11-18T01:50:24.708Z,5.48
2022-11-18T01:53:05.665Z,5.44
2022-11-18T01:55:46.297Z,5.41
2022-11-18T01:58:27.554Z,5.47
2022-11-18T02:01:04.455Z,5.47
2022-11-18T02:03:37.030Z,5.42
2022-11-18T02:06:11.898Z,5.43
2022-11-18T02:08:44.093Z,5.35
2022-11-18T02:11:34.908Z,5.38
2022-11-18T02:14:09.813Z,5.38
2022-11-18T02:16:53.510Z,5.39
2022-11-18T02:19:30.788Z,5.30
2022-11-18T02:22:14.538Z,5.23
2022-11-18T02:25:19.354Z,5.23
2022-11-18T02:28:03.446Z,5.16
2022-11-18T02:30:56.376Z,5.19
2022-11-18T02:33:31.010Z,5.26
2022-11-18T02:36:12.419Z,5.26
2022-11-18T02:38:50.278Z,5.25
2022-11-18T02:41:28.079Z,5.26
2022-11-18T02:44:05.962Z,5.33
2022-11-18T02:46:40.233Z,5.31
2022-11-18T02:49:27.682Z,5.24
2022-11-18T02:52:02.118Z,5.25
2022-11-18T02:54:37.413Z,5.20
2022-11-18T02:57:09.425Z,5.22
2022-11-18T02:59:44.040Z,5.22
2022-11-18T03:02:18.007Z,5.21
2022-11-18T03:04:54.061Z,5.21
2022-11-18T03:07:30.084Z,5.23
2022-11-18T03:10:02.967Z,5.22
2022-11-18T03:12:49.058Z,5.22
2022-11-18T03:15:35.027Z,5.30
2022-11-18T03:18:33.644Z,5.27
2022-11-18T03:21:24.801Z,5.28
2022-11-18T03:24:25.573Z,5.36
2022-11-18T03:27:23.994Z,5.47
2022-11-18T03:30:03.865Z,5.42
2022-11-18T03:32:40.387Z,5.40
2022-11-18T03:35:21.159Z,5.46
2022-11-18T03:37:58.368Z,5.52
2022-11-18T03:40:32.625Z,5.62
2022-11-18T03:43:13.850Z,5.69
2022-11-18T03:45:49.424Z,5.64
2022-11-18T03:48:29.536Z,5.67
2022-11-18T03:51:07.171Z,5.59
2022-11-18T03:53:43.290Z,5.49
2022-11-18T03:56:19.557Z,5.44
2022-11-18T03:59:02.806Z,5.47
2022-11-18T04:01:46.095Z,5.51
2022-11-18T04:04:18.353Z,5.46
2022-11-18T04:07:18.590Z,5.45
2022-11-18T04:10:18.010Z,5.48
2022-11-18T04:13:06.846Z,5.55
2022-11-18T04:15:41.531Z,5.58
2022-11-18T04:18:13.318Z,5.60
2022-11-18T04:20:44.938Z,5.51
2022-11-18T04:23:16.539Z,5.36
2022-11-18T04:25:49.248Z,5.31
2022-11-18T04:28:22.846Z,5.24
2022-11-18T04:30:54.461Z,5.20
2022-11-18T04:33:26.180Z,5.18
2022-11-18T04:35:57.791Z,5.21
2022-11-18T04:38:29.416Z,5.25
2022-11-18T04:41:01.047Z,5.31
2022-11-18T04:43:32.760Z,5.38
2022-11-18T04:46:04.530Z,5.32
2022-11-18T04:48:36.193Z,5.23
2022-11-18T04:51:10.613Z,5.24
2022-11-18T04:53:42.293Z,5.29
2022-11-18T04:56:13.873Z,5.36
2022-11-18T04:58:45.500Z,5.36
2022-11-18T05:01:17.213Z,5.36
2022-11-18T05:03:52.018Z,5.36
2022-11-18T05:06:23.664Z,5.41
2022-11-18T05:08:56.899Z,5.46
2022-11-18T05:11:47.209Z,5.52
2022-11-18T05:14:19.196Z,5.55
2022-11-18T05:16:55.680Z,5.47
2022-11-18T05:19:27.357Z,5.46
2022-11-18T05:21:59.522Z,5.51
2022-11-18T05:24:31.129Z,5.59
2022-11-18T05:27:03.128Z,5.59
2022-11-18T05:29:34.786Z,5.63
2022-11-18T05:32:06.432Z,5.62
2022-11-18T05:34:39.969Z,5.60
2022-11-18T05:37:11.772Z,5.46
2022-11-18T05:39:43.409Z,5.41
2022-11-18T05:42:33.554Z,5.38
2022-11-18T05:45:05.871Z,5.32
2022-11-18T05:47:57.440Z,5.29
2022-11-18T05:50:29.110Z,5.38
2022-11-18T05:53:02.151Z,5.50
2022-11-18T05:55:42.271Z,5.60
2022-11-18T05:58:14.048Z,5.58
2022-11-18T06:00:48.183Z,5.57
2022-11-18T06:03:30.284Z,5.47
2022-11-18T06:06:05.445Z,5.39
2022-11-18T06:08:46.157Z,5.34
2022-11-18T06:11:19.584Z,5.38
2022-11-18T06:14:16.206Z,5.41
2022-11-18T06:16:53.538Z,5.40
2022-11-18T06:19:26.250Z,5.49
2022-11-18T06:21:59.707Z,5.58
2022-11-18T06:24:31.714Z,5.62
2022-11-18T06:27:03.695Z,5.66
2022-11-18T06:29:35.414Z,5.65
2022-11-18T06:32:07.132Z,5.52
2022-11-18T06:34:41.703Z,5.43
2022-11-18T06:37:20.970Z,5.36
2022-11-18T06:39:52.657Z,5.39
2022-11-18T06:42:42.589Z,5.38
2022-11-18T06:45:14.453Z,5.40
2022-11-18T06:47:46.141Z,5.41
2022-11-18T06:50:17.832Z,5.43
2022-11-18T06:52:49.424Z,5.43
2022-11-18T06:55:21.030Z,5.41
2022-11-18T06:57:52.683Z,5.35
2022-11-18T07:00:24.294Z,5.35
2022-11-18T07:02:55.935Z,5.35
2022-11-18T07:05:27.702Z,5.38
2022-11-18T07:07:59.575Z,5.43
2022-11-18T07:10:31.264Z,5.47
2022-11-18T07:13:02.953Z,5.52
2022-11-18T07:15:37.682Z,5.60
2022-11-18T07:18:09.315Z,5.65
2022-11-18T07:20:41.295Z,5.67
2022-11-18T07:23:15.451Z,5.70
2022-11-18T07:25:47.127Z,5.64
2022-11-18T07:28:18.777Z,5.55
2022-11-18T07:30:51.085Z,5.41
2022-11-18T07:33:22.781Z,5.35
2022-11-18T07:35:54.391Z,5.41
2022-11-18T07:38:26.217Z,5.39
2022-11-18T07:41:09.118Z,5.35
2022-11-18T07:43:41.533Z,5.27
2022-11-18T07:46:17.250Z,5.26
2022-11-18T07:48:50.989Z,5.14
2022-11-18T07:51:27.082Z,5.13
2022-11-18T07:53:58.696Z,5.16
2022-11-18T07:56:30.526Z,5.08
2022-11-18T07:59:02.899Z,5.10
2022-11-18T08:01:35.449Z,5.12
2022-11-18T08:04:09.585Z,5.17
2022-11-18T08:06:41.254Z,5.10
2022-11-18T08:09:12.983Z,5.13
2022-11-18T08:11:44.642Z,5.19
2022-11-18T08:14:16.278Z,5.20
2022-11-18T08:16:48.000Z,5.24
2022-11-18T08:19:20.011Z,5.32
2022-11-18T08:21:51.946Z,5.31
2022-11-18T08:24:23.731Z,5.40
2022-11-18T08:26:55.386Z,5.48
2022-11-18T08:29:28.214Z,5.50
2022-11-18T08:32:00.106Z,5.59
2022-11-18T08:34:31.947Z,5.64
2022-11-18T08:37:03.583Z,5.73
2022-11-18T08:39:35.748Z,5.83
2022-11-18T08:42:07.725Z,5.94
2022-11-18T08:44:39.662Z,5.97
2022-11-18T08:47:11.660Z,5.93
2022-11-18T08:49:43.786Z,5.89
2022-11-18T08:52:16.809Z,5.86
2022-11-18T08:54:48.417Z,5.85
2022-11-18T08:57:20.022Z,5.85
2022-11-18T08:59:52.130Z,5.85
2022-11-18T09:02:24.520Z,5.77
2022-11-18T09:04:56.203Z,5.65
2022-11-18T09:07:27.890Z,5.46
2022-11-18T09:09:59.691Z,5.39
2022-11-18T09:12:31.385Z,5.36
2022-11-18T09:15:13.590Z,5.30
2022-11-18T09:17:46.267Z,5.28
2022-11-18T09:20:18.072Z,5.34
2022-11-18T09:22:49.838Z,5.42
2022-11-18T09:25:22.007Z,5.31
2022-11-18T09:27:55.470Z,5.32
2022-11-18T09:30:27.672Z,5.41
2022-11-18T09:32:59.336Z,5.39
2022-11-18T09:35:32.234Z,5.42
2022-11-18T09:38:03.851Z,5.51
2022-11-18T09:40:58.629Z,5.59
2022-11-18T09:43:57.335Z,5.68
2022-11-18T09:47:07.544Z,5.71
2022-11-18T09:49:41.147Z,5.56
2022-11-18T09:52:12.675Z,5.54
2022-11-18T09:54:44.774Z,5.45
2022-11-18T09:57:36.766Z,5.50
2022-11-18T10:00:26.422Z,5.44
2022-11-18T10:03:04.956Z,5.31
2022-11-18T10:06:09.692Z,5.38
2022-11-18T10:08:55.744Z,5.25
2022-11-18T10:11:40.259Z,5.23
2022-11-18T10:14:23.120Z,5.21
2022-11-18T10:17:22.816Z,5.21
2022-11-18T10:20:07.009Z,5.24
2022-11-18T10:22:54.279Z,5.32
2022-11-18T10:25:26.207Z,5.36
2022-11-18T10:28:14.838Z,5.34
2022-11-18T10:30:46.620Z,5.39
2022-11-18T10:33:25.639Z,5.46
2022-11-18T10:36:26.896Z,5.60
2022-11-18T10:39:15.622Z,5.68
2022-11-18T10:41:52.150Z,5.69
2022-11-18T10:44:33.779Z,5.61
2022-11-18T10:47:43.699Z,5.55
2022-11-18T10:50:29.069Z,5.42
2022-11-18T10:53:02.069Z,5.39
2022-11-18T10:55:33.853Z,5.36
2022-11-18T10:58:13.551Z,5.44
2022-11-18T11:00:51.450Z,5.53
2022-11-18T11:03:44.213Z,5.51
2022-11-18T11:06:31.514Z,5.54
2022-11-18T11:09:24.963Z,5.39
2022-11-18T11:12:12.617Z,5.34
2022-11-18T11:14:53.493Z,5.39
2022-11-18T11:18:09.257Z,5.34
2022-11-18T11:20:41.317Z,5.31
2022-11-18T11:23:19.116Z,5.27
2022-11-18T11:29:07.477Z,5.32
2022-11-18T11:31:55.618Z,5.27
2022-11-18T11:35:07.154Z,5.16
2022-11-18T11:37:55.019Z,5.07
2022-11-18T11:41:08.448Z,5.04
2022-11-18T11:44:08.840Z,5.01
2022-11-18T11:47:38.412Z,5.06
2022-11-18T11:50:17.401Z,4.98
2022-11-18T11:52:49.063Z,5.00
2022-11-18T11:55:21.638Z,4.79
2022-11-18T11:58:13.612Z,4.76
2022-11-18T12:01:03.672Z,4.63
2022-11-18T12:03:52.061Z,4.54
2022-11-18T12:06:24.020Z,4.49
2022-11-18T12:09:07.286Z,4.49
2022-11-18T12:11:45.218Z,4.48
2022-11-18T12:14:39.871Z,4.37
2022-11-18T12:17:28.362Z,4.33
2022-11-18T12:19:59.960Z,4.31
2022-11-18T12:23:09.619Z,4.31
2022-11-18T12:26:02.044Z,4.31
2022-11-18T12:28:43.341Z,4.25
2022-11-18T12:31:18.222Z,4.20
2022-11-18T12:33:53.933Z,4.17
2022-11-18T12:36:35.745Z,4.10
2022-11-18T12:39:36.247Z,4.12
2022-11-18T12:43:01.758Z,3.84
2022-11-18T12:45:43.339Z,3.78
2022-11-18T12:48:27.408Z,3.76
2022-11-18T12:51:22.395Z,3.65
2022-11-18T12:53:54.455Z,3.67
2022-11-18T12:56:35.454Z,3.60
2022-11-18T12:59:13.018Z,3.57
2022-11-18T13:01:44.706Z,3.54
2022-11-18T13:04:22.306Z,3.54
2022-11-18T13:06:56.296Z,3.50
2022-11-18T13:09:32.949Z,3.47
2022-11-18T13:12:12.785Z,3.46
2022-11-18T13:15:04.226Z,3.50
2022-11-18T13:17:58.569Z,3.50
2022-11-18T13:20:37.460Z,3.48
2022-11-18T13:23:30.658Z,3.50
2022-11-18T13:26:16.047Z,3.53
2022-11-18T13:29:16.264Z,3.60
2022-11-18T13:32:15.508Z,3.67
2022-11-18T13:34:50.357Z,3.64
2022-11-18T13:37:26.501Z,3.59
2022-11-18T13:39:58.358Z,3.53
2022-11-18T13:42:31.766Z,3.53
2022-11-18T13:45:04.183Z,3.49
2022-11-18T13:47:51.588Z,3.42
2022-11-18T13:50:40.448Z,3.45
2022-11-18T13:53:19.067Z,3.49
2022-11-18T13:55:56.311Z,3.49
2022-11-18T14:01:36.651Z,3.46
2022-11-18T14:04:21.215Z,3.48
2022-11-18T14:06:53.394Z,3.55
2022-11-18T14:09:30.559Z,3.53
2022-11-18T14:12:28.853Z,3.42
2022-11-18T14:15:34.683Z,3.39
2022-11-18T14:18:23.062Z,3.40
2022-11-18T14:20:55.033Z,3.38
2022-11-18T14:23:36.979Z,3.31
2022-11-18T14:26:09.896Z,3.33
2022-11-18T14:28:55.007Z,3.37
2022-11-18T14:31:29.016Z,3.26
2022-11-18T14:34:05.246Z,3.21
2022-11-18T14:36:36.874Z,3.20
2022-11-18T14:39:29.505Z,3.12
2022-11-18T14:42:01.908Z,3.07
2022-11-18T14:44:34.572Z,3.04
2022-11-18T14:47:24.616Z,2.97
2022-11-18T14:49:56.226Z,2.91
2022-11-18T14:52:30.208Z,2.79
2022-11-18T14:55:01.879Z,2.83
2022-11-18T14:57:33.598Z,2.88
2022-11-18T15:00:05.793Z,2.79
2022-11-18T15:02:37.441Z,2.71
2022-11-18T15:05:09.371Z,2.70
2022-11-18T15:07:41.042Z,2.68
2022-11-18T15:10:17.803Z,2.62
2022-11-18T15:12:49.389Z,2.60
2022-11-18T15:15:21.053Z,2.58
2022-11-18T15:17:54.011Z,2.53
2022-11-18T15:20:28.969Z,2.44
2022-11-18T15:23:00.695Z,2.40
2022-11-18T15:25:32.478Z,2.35
2022-11-18T15:28:04.298Z,2.35
2022-11-18T15:30:36.401Z,2.32
2022-11-18T15:33:10.110Z,2.31
2022-11-18T15:35:41.728Z,2.30
2022-11-18T15:38:13.395Z,2.24
2022-11-18T15:40:45.105Z,2.26
2022-11-18T15:43:17.888Z,2.33
2022-11-18T15:45:57.011Z,2.30
2022-11-18T15:48:28.716Z,2.25
2022-11-18T15:51:00.393Z,2.24
2022-11-18T15:53:32.099Z,2.21
2022-11-18T15:56:19.081Z,2.15
2022-11-18T15:58:57.119Z,2.13
2022-11-18T16:01:32.210Z,2.16
2022-11-18T16:04:05.819Z,2.28
2022-11-18T16:06:38.042Z,2.27
2022-11-18T16:09:10.693Z,2.26
2022-11-18T16:12:00.980Z,2.24
2022-11-18T16:14:32.804Z,2.28
2022-11-18T16:17:04.380Z,2.34
2022-11-18T16:19:36.024Z,2.35
2022-11-18T16:22:07.581Z,2.37
2022-11-18T16:24:42.910Z,2.29
2022-11-18T16:27:20.659Z,2.22
2022-11-18T16:29:52.569Z,2.26
2022-11-18T16:32:26.854Z,2.23
2022-11-18T16:35:01.432Z,2.28
2022-11-18T16:37:34.512Z,2.26
2022-11-18T16:40:06.686Z,2.24
2022-11-18T16:42:38.317Z,2.28
2022-11-18T16:45:10.615Z,2.24
2022-11-18T16:47:43.192Z,2.04
2022-11-18T16:50:14.939Z,2.06
2022-11-18T16:52:46.543Z,1.95
2022-11-18T16:55:18.077Z,1.89
2022-11-18T16:57:49.663Z,1.91
2022-11-18T17:00:37.840Z,1.84
2022-11-18T17:03:12.898Z,1.76
2022-11-18T17:05:44.482Z,1.69
2022-11-18T17:08:16.118Z,1.63
2022-11-18T17:10:47.788Z,1.59
2022-11-18T17:13:19.626Z,1.45
2022-11-18T17:15:51.208Z,1.46
2022-11-18T17:18:22.811Z,1.43
2022-11-18T17:20:54.415Z,1.31
2022-11-18T17:23:28.496Z,1.13
2022-11-18T17:26:01.185Z,1.05
2022-11-18T17:28:35.118Z,0.93
2022-11-18T17:31:08.764Z,1.02
2022-11-18T17:33:41.172Z,1.01
2022-11-18T17:36:18.940Z,0.96
2022-11-18T17:38:53.011Z,0.98
2022-11-18T17:41:45.171Z,0.99
2022-11-18T17:44:17.878Z,1.07
2022-11-18T17:46:50.084Z,1.13
2022-11-18T17:49:22.491Z,1.12
2022-11-18T17:51:54.633Z,1.06
2022-11-18T17:54:36.143Z,1.00
2022-11-18T17:57:07.770Z,1.01
2022-11-18T17:59:39.409Z,1.01
2022-11-18T18:02:14.288Z,1.06
2022-11-18T18:04:46.090Z,1.12
2022-11-18T18:07:19.771Z,1.12
2022-11-18T18:09:51.465Z,1.05
2022-11-18T18:12:41.799Z,1.09
2022-11-18T18:15:13.437Z,1.05
2022-11-18T18:17:51.369Z,1.06
2022-11-18T18:20:23.298Z,1.01
2022-11-18T18:22:54.912Z,0.94
2022-11-18T18:25:26.526Z,0.88
2022-11-18T18:27:58.106Z,0.79
2022-11-18T18:30:29.763Z,0.73
2022-11-18T18:33:04.269Z,0.75
2022-11-18T18:35:41.269Z,0.79
2022-11-18T18:38:12.945Z,0.76
2022-11-18T18:40:44.571Z,0.74
2022-11-18T18:43:16.140Z,0.73
2022-11-18T18:46:06.292Z,0.77
2022-11-18T18:48:37.859Z,0.75
2022-11-18T18:51:09.774Z,0.81
2022-11-18T18:53:41.622Z,0.66
2022-11-18T18:56:13.385Z,0.58
2022-11-18T18:58:45.495Z,0.46
2022-11-18T19:01:18.980Z,0.37
2022-11-18T19:03:59.261Z,0.38
2022-11-18T19:09:29.768Z,0.23
2022-11-18T19:12:20.391Z,0.22
2022-11-18T19:14:52.071Z,0.15
2022-11-18T19:17:24.010Z,0.12
2022-11-18T19:20:33.605Z,0.01
2022-11-18T19:23:10.363Z,0.09
2022-11-18T19:25:44.123Z,-0.06
2022-11-18T19:28:15.819Z,-0.10
2022-11-18T19:30:47.725Z,-0.09
2022-11-18T19:33:19.504Z,0.00
2022-11-18T19:35:51.115Z,0.02
2022-11-18T19:38:28.652Z,0.04
2022-11-18T19:41:08.996Z,0.04
2022-11-18T19:43:41.900Z,0.09
2022-11-18T19:46:13.584Z,0.16
2022-11-18T19:48:48.449Z,0.21
2022-11-18T19:51:19.962Z,0.27
2022-11-18T19:53:54.608Z,0.18
2022-11-18T19:56:28.617Z,0.09
2022-11-18T19:59:00.269Z,0.08
2022-11-18T20:01:32.113Z,0.00
2022-11-18T20:04:07.073Z,-0.03
2022-11-18T20:06:39.947Z,0.03
2022-11-18T20:09:11.838Z,0.01
2022-11-18T20:11:44.512Z,-0.07
2022-11-18T20:14:16.585Z,-0.10
2022-11-18T20:16:48.269Z,-0.16
2022-11-18T20:19:20.177Z,-0.22
2022-11-18T20:21:52.662Z,-0.28
2022-11-18T20:24:24.611Z,-0.42
2022-11-18T20:26:56.183Z,-0.59
2022-11-18T20:29:27.901Z,-0.67
2022-11-18T20:31:59.562Z,-0.65
2022-11-18T20:34:31.194Z,-0.64
2022-11-18T20:37:02.937Z,-0.67
2022-11-18T20:39:34.554Z,-0.70
2022-11-18T20:42:24.785Z,-0.68
2022-11-18T20:44:56.473Z,-0.69
2022-11-18T20:47:28.059Z,-0.76
2022-11-18T20:49:59.758Z,-0.73
2022-11-18T20:52:33.795Z,-0.76
2022-11-18T20:55:06.132Z,-0.76
2022-11-18T20:57:37.862Z,-0.76
2022-11-18T21:00:10.184Z,-0.74
2022-11-18T21:02:41.784Z,-0.65
2022-11-18T21:05:13.434Z,-0.66
2022-11-18T21:07:45.099Z,-0.65
2022-11-18T21:10:17.600Z,-0.63
2022-11-18T21:13:07.936Z,-0.63
2022-11-18T21:15:39.568Z,-0.62
2022-11-18T21:18:11.116Z,-0.63
2022-11-18T21:21:01.143Z,-0.67
2022-11-18T21:23:35.472Z,-0.61
2022-11-18T21:26:12.892Z,-0.50
2022-11-18T21:28:45.115Z,-0.42
2022-11-18T21:31:21.956Z,-0.38
2022-11-18T21:33:55.889Z,-0.41
2022-11-18T21:36:30.529Z,-0.36
2022-11-18T21:39:04.992Z,-0.40
2022-11-18T21:41:37.013Z,-0.50
2022-11-18T21:44:10.737Z,-0.46
2022-11-18T21:46:42.411Z,-0.41
2022-11-18T21:49:17.456Z,-0.32
2022-11-18T21:51:49.500Z,-0.32
2022-11-18T21:54:21.260Z,-0.39
2022-11-18T21:56:53.849Z,-0.48
2022-11-18T21:59:25.486Z,-0.50
2022-11-18T22:01:57.120Z,-0.51
2022-11-18T22:04:47.539Z,-0.43
2022-11-18T22:07:23.978Z,-0.41
2022-11-18T22:09:55.657Z,-0.49
2022-11-18T22:12:27.325Z,-0.54
2022-11-18T22:14:58.928Z,-0.51
2022-11-18T22:17:30.620Z,-0.47
2022-11-18T22:20:02.781Z,-0.39
2022-11-18T22:22:34.462Z,-0.31
2022-11-18T22:25:06.517Z,-0.33
2022-11-18T22:27:38.139Z,-0.29
2022-11-18T22:30:10.199Z,-0.26
2022-11-18T22:32:43.476Z,-0.20
2022-11-18T22:35:15.175Z,-0.25
2022-11-18T22:37:46.838Z,-0.29
2022-11-18T22:40:18.533Z,-0.37
2022-11-18T22:42:50.615Z,-0.38
2022-11-18T22:45:22.407Z,-0.38
2022-11-18T22:47:54.083Z,-0.37
2022-11-18T22:50:28.666Z,-0.33
2022-11-18T22:53:02.905Z,-0.34
2022-11-18T22:55:34.503Z,-0.33
2022-11-18T22:58:06.231Z,-0.31
2022-11-18T23:00:37.914Z,-0.35
2022-11-18T23:03:09.512Z,-0.35
2022-11-18T23:05:42.595Z,-0.43
2022-11-18T23:08:17.290Z,-0.41
2022-11-18T23:10:49.136Z,-0.33
2022-11-18T23:13:39.500Z,-0.28
2022-11-18T23:16:11.075Z,-0.32
2022-11-18T23:18:47.285Z,-0.28
2022-11-18T23:21:18.919Z,-0.27
2022-11-18T23:23:52.623Z,-0.25
2022-11-18T23:26:24.757Z,-0.16
2022-11-18T23:28:56.452Z,-0.10
2022-11-18T23:31:28.413Z,-0.11
2022-11-18T23:34:00.286Z,-0.06
2022-11-18T23:36:31.892Z,0.02
2022-11-18T23:39:04.734Z,-0.07
2022-11-18T23:41:36.817Z,-0.06
2022-11-18T23:44:08.495Z,-0.04
2022-11-18T23:46:40.042Z,-0.01
2022-11-18T23:49:12.605Z,-0.08
2022-11-18T23:51:44.204Z,-0.22
2022-11-18T23:54:15.764Z,-0.21
2022-11-18T23:56:47.431Z,-0.21
2022-11-18T23:59:19.440Z,-0.24
